| time (UTC) | temp F | wind direction | speed knots | gust knots | rain 1hr in | rain 24hr in | rain mn in | humidity % | barometer mb |
| 20260508163012 | 67 | 294 | 15.6 | 20.0 | 0.00 | 0.00 | 0.00 | 30 | 1001.6 |
| 20260508161508 | 67 | 299 | 14.8 | 20.0 | 0.00 | 0.00 | 0.00 | 29 | 1001.6 |
| 20260508160004 | 67 | 269 | 13.9 | 17.4 | 0.00 | 0.00 | 0.00 | 30 | 1001.6 |
| 20260508154601 | 65 | 261 | 9.6 | 14.8 | 0.00 | 0.00 | 0.00 | 35 | 1001.5 |
| 20260508153102 | 64 | 263 | 7.8 | 11.3 | 0.00 | 0.00 | 0.00 | 37 | 1001.8 |
| 20260508151553 | 59 | 240 | 6.1 | 10.4 | 0.00 | 0.00 | 0.00 | 43 | 1001.8 |
| 20260508150053 | 59 | 252 | 7.0 | 10.4 | 0.00 | 0.00 | 0.00 | 45 | 1001.9 |
| 20260508144553 | 56 | 253 | 6.1 | 9.6 | 0.00 | 0.00 | 0.00 | 46 | 1001.9 |
| 20260508143051 | 56 | 244 | 7.0 | 10.4 | 0.00 | 0.00 | 0.00 | 46 | 1002.1 |
| 20260508141553 | 55 | 235 | 6.1 | 8.7 | 0.00 | 0.00 | 0.00 | 47 | 1002.2 |
| 20260508140039 | 53 | 245 | 5.2 | 7.8 | 0.00 | 0.00 | 0.00 | 49 | 1002.2 |
| 20260508134534 | 51 | 260 | 1.7 | 3.5 | 0.00 | 0.00 | 0.00 | 58 | 1002.4 |
| 20260508133028 | 49 | 223 | 0.9 | 4.3 | 0.00 | 0.00 | 0.00 | 57 | 1002.3 |
| 20260508131524 | 48 | 210 | 0.9 | 2.6 | 0.00 | 0.00 | 0.00 | 57 | 1002.1 |
| 20260508130020 | 47 | 207 | 0.9 | 2.6 | 0.00 | 0.00 | 0.00 | 59 | 1002.4 |
| 20260508124515 | 43 | 318 | 0.0 | 2.6 | 0.00 | 0.00 | 0.00 | 70 | 1002.5 |
| 20260508123012 | 41 | 360 | 0.9 | 4.3 | 0.00 | 0.00 | 0.00 | 70 | 1002.5 |
| 20260508121510 | 39 | 237 | 1.7 | 3.5 | 0.00 | 0.00 | 0.00 | 73 | 1002.4 |
| 20260508120009 | 38 | 244 | 1.7 | 6.1 | 0.00 | 0.00 | 0.00 | 74 | 1002.6 |
| 20260508114504 | 38 | 336 | 0.9 | 3.5 | 0.00 | 0.00 | 0.00 | 72 | 1002.5 |
| 20260508113106 | 38 | 199 | 0.9 | 3.5 | 0.00 | 0.00 | 0.00 | 72 | 1002.7 |
| 20260508111558 | 39 | 199 | 3.5 | 4.3 | 0.00 | 0.00 | 0.00 | 69 | 1002.8 |
| 20260508110057 | 41 | 175 | 0.0 | 1.7 | 0.00 | 0.00 | 0.00 | 67 | 1002.7 |
| 20260508104556 | 41 | 175 | 0.0 | 1.7 | 0.00 | 0.00 | 0.00 | 67 | 1002.7 |
| 20260508103055 | 41 | 175 | 1.7 | 3.5 | 0.00 | 0.00 | 0.00 | 66 | 1003.0 |
| 20260508101553 | 41 | 13 | 1.7 | 2.6 | 0.00 | 0.00 | 0.00 | 66 | 1003.0 |
| 20260508100052 | 41 | 5 | 2.6 | 4.3 | 0.00 | 0.00 | 0.00 | 66 | 1003.4 |
| 20260508094609 | 43 | 303 | 0.9 | 3.5 | 0.00 | 0.00 | 0.00 | 64 | 1003.3 |
| 20260508093051 | 43 | 221 | 1.7 | 3.5 | 0.00 | 0.00 | 0.00 | 62 | 1003.3 |
| 20260508091550 | 42 | 220 | 2.6 | 5.2 | 0.00 | 0.00 | 0.00 | 64 | 1003.2 |
| 20260508090052 | 42 | 223 | 0.9 | 2.6 | 0.00 | 0.00 | 0.00 | 62 | 1003.2 |
| 20260508084547 | 42 | 223 | 2.6 | 3.5 | 0.00 | 0.00 | 0.00 | 64 | 1003.6 |
| 20260508083046 | 42 | 319 | 0.0 | 1.7 | 0.00 | 0.00 | 0.00 | 62 | 1003.4 |
| 20260508081608 | 42 | 329 | 2.6 | 4.3 | 0.00 | 0.00 | 0.00 | 63 | 1003.7 |
| 20260508080044 | 41 | 22 | 2.6 | 7.8 | 0.00 | 0.00 | 0.00 | 65 | 1003.6 |
| 20260508074543 | 40 | 228 | 3.5 | 6.1 | 0.00 | 0.00 | 0.00 | 67 | 1003.7 |
| 20260508073043 | 38 | 230 | 1.7 | 5.2 | 0.00 | 0.00 | 0.00 | 71 | 1003.8 |
| 20260508071545 | 36 | 225 | 4.3 | 6.1 | 0.00 | 0.00 | 0.00 | 71 | 1003.9 |
| 20260508070042 | 36 | 223 | 4.3 | 5.2 | 0.00 | 0.00 | 0.00 | 69 | 1003.9 |
| 20260508064538 | 35 | 220 | 3.5 | 5.2 | 0.00 | 0.00 | 0.00 | 72 | 1003.9 |
| 20260508063046 | 36 | 284 | 1.7 | 3.5 | 0.00 | 0.00 | 0.00 | 67 | 1003.9 |
| 20260508061533 | 36 | 263 | 1.7 | 3.5 | 0.00 | 0.00 | 0.00 | 64 | 1003.9 |
| 20260508060034 | 39 | 259 | 0.9 | 3.5 | 0.00 | 0.00 | 0.00 | 59 | 1004.0 |
| 20260508054524 | 41 | 242 | 2.6 | 3.5 | 0.00 | 0.00 | 0.00 | 55 | 1004.1 |
| 20260508053023 | 42 | 216 | 2.6 | 3.5 | 0.00 | 0.00 | 0.00 | 53 | 1004.2 |
| 20260508051516 | 44 | 215 | 1.7 | 3.5 | 0.00 | 0.00 | 0.00 | 49 | 1004.1 |
| 20260508050017 | 44 | 215 | 1.7 | 3.5 | 0.00 | 0.00 | 0.00 | 48 | 1004.3 |
| 20260508044514 | 45 | 215 | 2.6 | 4.3 | 0.00 | 0.00 | 0.00 | 48 | 1004.3 |
| 20260508043013 | 46 | 238 | 1.7 | 3.5 | 0.00 | 0.00 | 0.00 | 46 | 1004.4 |
| 20260508041513 | 44 | 238 | 1.7 | 3.5 | 0.00 | 0.00 | 0.00 | 50 | 1004.4 |
| 20260508040012 | 44 | 237 | 2.6 | 4.3 | 0.00 | 0.00 | 0.00 | 51 | 1004.5 |
| 20260508034512 | 44 | 259 | 1.7 | 4.3 | 0.00 | 0.00 | 0.00 | 48 | 1004.6 |
| 20260508033011 | 45 | 229 | 3.5 | 5.2 | 0.00 | 0.00 | 0.00 | 47 | 1004.5 |
| 20260508031511 | 49 | 248 | 0.0 | 1.7 | 0.00 | 0.00 | 0.00 | 38 | 1004.4 |
| 20260508030011 | 49 | 246 | 0.0 | 2.6 | 0.00 | 0.00 | 0.00 | 39 | 1004.5 |
| 20260508024517 | 49 | 48 | 0.0 | 3.5 | 0.00 | 0.00 | 0.00 | 41 | 1004.4 |
| 20260508023009 | 49 | 5 | 0.9 | 2.6 | 0.00 | 0.00 | 0.00 | 39 | 1004.3 |
| 20260508021508 | 52 | 229 | 1.7 | 3.5 | 0.00 | 0.00 | 0.00 | 36 | 1004.1 |
| 20260508020008 | 53 | 230 | 2.6 | 3.5 | 0.00 | 0.00 | 0.00 | 36 | 1004.1 |
| 20260508014509 | 54 | 243 | 0.9 | 1.7 | 0.00 | 0.00 | 0.00 | 35 | 1004.1 |
| 20260508013006 | 55 | 260 | 0.9 | 2.6 | 0.00 | 0.00 | 0.00 | 34 | 1004.1 |
| 20260508011505 | 56 | 261 | 1.7 | 6.1 | 0.00 | 0.00 | 0.00 | 33 | 1004.2 |
| 20260508010005 | 59 | 257 | 3.5 | 6.1 | 0.00 | 0.00 | 0.00 | 31 | 1004.2 |
| 20260508004504 | 59 | 261 | 3.5 | 7.8 | 0.00 | 0.00 | 0.00 | 29 | 1004.1 |
| 20260508003005 | 61 | 249 | 7.8 | 13.0 | 0.00 | 0.00 | 0.00 | 23 | 1004.1 |
| 20260508001502 | 62 | 267 | 7.0 | 11.3 | 0.00 | 0.00 | 0.00 | 24 | 1004.1 |
| 20260508000002 | 62 | 271 | 7.0 | 11.3 | 0.00 | 0.00 | 0.00 | 23 | 1004.2 |
| 20260507234501 | 62 | 284 | 7.0 | 12.2 | 0.00 | 0.00 | 0.00 | 22 | 1004.4 |
| 20260507233100 | 63 | 286 | 7.8 | 11.3 | 0.00 | 0.00 | 0.00 | 22 | 1004.2 |
| 20260507231600 | 63 | 276 | 9.6 | 13.0 | 0.00 | 0.00 | 0.00 | 21 | 1004.3 |
| 20260507230104 | 63 | 252 | 7.0 | 12.2 | 0.00 | 0.00 | 0.00 | 23 | 1004.5 |
| 20260507224559 | 63 | 244 | 9.6 | 13.0 | 0.00 | 0.00 | 0.00 | 20 | 1004.3 |
| 20260507223056 | 62 | 240 | 7.0 | 13.9 | 0.00 | 0.00 | 0.00 | 21 | 1004.5 |
| 20260507221554 | 62 | 312 | 5.2 | 15.6 | 0.00 | 0.00 | 0.00 | 22 | 1004.6 |
| 20260507220053 | 63 | 263 | 7.0 | 13.0 | 0.00 | 0.00 | 0.00 | 21 | 1004.8 |
| 20260507214603 | 63 | 281 | 10.4 | 17.4 | 0.00 | 0.00 | 0.00 | 22 | 1004.7 |
| 20260507213050 | 62 | 327 | 2.6 | 13.0 | 0.00 | 0.00 | 0.00 | 23 | 1004.9 |
| 20260507211551 | 62 | 276 | 11.3 | 16.5 | 0.00 | 0.00 | 0.00 | 23 | 1004.9 |
| 20260507210052 | 61 | 287 | 3.5 | 10.4 | 0.00 | 0.00 | 0.00 | 25 | 1004.9 |
| 20260507204546 | 61 | 285 | 6.1 | 12.2 | 0.00 | 0.00 | 0.00 | 23 | 1005.2 |
| 20260507203102 | 60 | 223 | 5.2 | 15.6 | 0.00 | 0.00 | 0.00 | 25 | 1005.4 |
| 20260507201554 | 60 | 342 | 3.5 | 12.2 | 0.00 | 0.00 | 0.00 | 23 | 1005.6 |
| 20260507200058 | 61 | 248 | 9.6 | 13.0 | 0.00 | 0.00 | 0.00 | 26 | 1005.8 |
| 20260507194538 | 60 | 215 | 5.2 | 13.0 | 0.00 | 0.00 | 0.00 | 28 | 1005.9 |
| 20260507193044 | 59 | 263 | 7.0 | 13.0 | 0.00 | 0.00 | 0.00 | 27 | 1006.2 |
| 20260507191535 | 59 | 261 | 6.1 | 12.2 | 0.00 | 0.00 | 0.00 | 29 | 1006.2 |
| 20260507190034 | 60 | 323 | 8.7 | 12.2 | 0.00 | 0.00 | 0.00 | 27 | 1006.3 |
| 20260507184532 | 60 | 263 | 3.5 | 13.0 | 0.00 | 0.00 | 0.00 | 32 | 1006.4 |
| 20260507183033 | 58 | 170 | 2.6 | 11.3 | 0.00 | 0.00 | 0.00 | 33 | 1006.4 |
| 20260507181531 | 58 | 249 | 8.7 | 16.5 | 0.00 | 0.00 | 0.00 | 30 | 1006.6 |
| 20260507180027 | 57 | 200 | 3.5 | 13.0 | 0.00 | 0.00 | 0.00 | 32 | 1006.7 |
| 20260507174524 | 57 | 205 | 7.0 | 10.4 | 0.00 | 0.00 | 0.00 | 34 | 1006.9 |
| 20260507173030 | 56 | 249 | 8.7 | 13.0 | 0.00 | 0.00 | 0.00 | 35 | 1007.3 |
| 20260507171516 | 55 | 230 | 4.3 | 10.4 | 0.00 | 0.00 | 0.00 | 34 | 1007.5 |
| 20260507170015 | 54 | 170 | 4.3 | 13.9 | 0.00 | 0.00 | 0.00 | 36 | 1007.7 |
| 20260507164511 | 55 | 225 | 4.3 | 11.3 | 0.00 | 0.00 | 0.00 | 35 | 1007.9 |